sensor_id;sensor_type;location;lat;lon;timestamp;P1;durP1;ratioP1;P2;durP2;ratioP2
12681;SDS011;6405;59.208;18.216;2023-04-21T00:00:16;5.13;;;2.80;;
12681;SDS011;6405;59.208;18.216;2023-04-21T00:02:42;3.73;;;2.90;;
12681;SDS011;6405;59.208;18.216;2023-04-21T00:05:10;5.23;;;2.87;;
12681;SDS011;6405;59.208;18.216;2023-04-21T00:07:38;6.27;;;3.37;;
12681;SDS011;6405;59.208;18.216;2023-04-21T00:10:10;4.43;;;3.03;;
12681;SDS011;6405;59.208;18.216;2023-04-21T00:12:36;6.30;;;3.23;;
12681;SDS011;6405;59.208;18.216;2023-04-21T00:15:02;4.57;;;2.77;;
12681;SDS011;6405;59.208;18.216;2023-04-21T00:17:29;7.30;;;3.07;;
12681;SDS011;6405;59.208;18.216;2023-04-21T00:19:55;4.80;;;3.00;;
12681;SDS011;6405;59.208;18.216;2023-04-21T00:22:20;5.47;;;3.27;;
12681;SDS011;6405;59.208;18.216;2023-04-21T00:24:46;5.63;;;3.03;;
12681;SDS011;6405;59.208;18.216;2023-04-21T00:27:12;4.80;;;3.17;;
12681;SDS011;6405;59.208;18.216;2023-04-21T00:29:45;6.27;;;3.07;;
12681;SDS011;6405;59.208;18.216;2023-04-21T00:32:11;5.70;;;3.37;;
12681;SDS011;6405;59.208;18.216;2023-04-21T00:34:37;4.30;;;2.80;;
12681;SDS011;6405;59.208;18.216;2023-04-21T00:37:02;4.87;;;3.40;;
12681;SDS011;6405;59.208;18.216;2023-04-21T00:39:28;4.10;;;3.10;;
12681;SDS011;6405;59.208;18.216;2023-04-21T00:41:53;6.07;;;3.50;;
12681;SDS011;6405;59.208;18.216;2023-04-21T00:44:19;4.53;;;3.33;;
12681;SDS011;6405;59.208;18.216;2023-04-21T00:46:45;5.83;;;3.47;;
12681;SDS011;6405;59.208;18.216;2023-04-21T00:49:13;5.20;;;3.40;;
12681;SDS011;6405;59.208;18.216;2023-04-21T00:51:38;6.80;;;3.10;;
12681;SDS011;6405;59.208;18.216;2023-04-21T00:54:05;8.27;;;3.30;;
12681;SDS011;6405;59.208;18.216;2023-04-21T00:56:32;6.20;;;3.30;;
12681;SDS011;6405;59.208;18.216;2023-04-21T00:59:00;4.93;;;3.60;;
12681;SDS011;6405;59.208;18.216;2023-04-21T01:01:29;4.47;;;3.07;;
12681;SDS011;6405;59.208;18.216;2023-04-21T01:03:59;5.27;;;3.40;;
12681;SDS011;6405;59.208;18.216;2023-04-21T01:06:27;4.77;;;3.50;;
12681;SDS011;6405;59.208;18.216;2023-04-21T01:08:54;6.87;;;3.50;;
12681;SDS011;6405;59.208;18.216;2023-04-21T01:11:19;5.50;;;3.53;;
12681;SDS011;6405;59.208;18.216;2023-04-21T01:13:45;6.67;;;3.70;;
12681;SDS011;6405;59.208;18.216;2023-04-21T01:16:16;4.83;;;3.60;;
12681;SDS011;6405;59.208;18.216;2023-04-21T01:18:43;5.10;;;3.10;;
12681;SDS011;6405;59.208;18.216;2023-04-21T01:21:09;5.43;;;3.57;;
12681;SDS011;6405;59.208;18.216;2023-04-21T01:23:35;4.80;;;3.10;;
12681;SDS011;6405;59.208;18.216;2023-04-21T01:26:01;5.73;;;3.50;;
12681;SDS011;6405;59.208;18.216;2023-04-21T01:28:27;5.50;;;3.50;;
12681;SDS011;6405;59.208;18.216;2023-04-21T01:30:52;12.47;;;3.57;;
12681;SDS011;6405;59.208;18.216;2023-04-21T01:33:18;6.97;;;3.87;;
12681;SDS011;6405;59.208;18.216;2023-04-21T01:35:45;3.97;;;3.03;;
12681;SDS011;6405;59.208;18.216;2023-04-21T01:38:11;4.67;;;3.07;;
12681;SDS011;6405;59.208;18.216;2023-04-21T01:40:37;5.37;;;3.40;;
12681;SDS011;6405;59.208;18.216;2023-04-21T01:43:03;4.90;;;3.43;;
12681;SDS011;6405;59.208;18.216;2023-04-21T01:45:30;5.33;;;3.47;;
12681;SDS011;6405;59.208;18.216;2023-04-21T01:47:56;4.70;;;3.17;;
12681;SDS011;6405;59.208;18.216;2023-04-21T01:50:21;6.20;;;3.63;;
12681;SDS011;6405;59.208;18.216;2023-04-21T01:52:47;4.60;;;3.40;;
12681;SDS011;6405;59.208;18.216;2023-04-21T01:55:13;5.97;;;3.53;;
12681;SDS011;6405;59.208;18.216;2023-04-21T01:57:39;9.33;;;3.43;;
12681;SDS011;6405;59.208;18.216;2023-04-21T02:00:05;6.03;;;3.50;;
12681;SDS011;6405;59.208;18.216;2023-04-21T02:02:31;8.60;;;3.70;;
12681;SDS011;6405;59.208;18.216;2023-04-21T02:04:57;6.77;;;3.40;;
12681;SDS011;6405;59.208;18.216;2023-04-21T02:07:22;4.40;;;3.50;;
12681;SDS011;6405;59.208;18.216;2023-04-21T02:09:48;5.90;;;3.27;;
12681;SDS011;6405;59.208;18.216;2023-04-21T02:12:14;8.17;;;3.57;;
12681;SDS011;6405;59.208;18.216;2023-04-21T02:14:39;4.23;;;3.40;;
12681;SDS011;6405;59.208;18.216;2023-04-21T02:17:05;5.27;;;3.40;;
12681;SDS011;6405;59.208;18.216;2023-04-21T02:19:31;5.60;;;3.83;;
12681;SDS011;6405;59.208;18.216;2023-04-21T02:21:56;11.10;;;3.87;;
12681;SDS011;6405;59.208;18.216;2023-04-21T02:24:22;6.13;;;2.93;;
12681;SDS011;6405;59.208;18.216;2023-04-21T02:26:48;6.70;;;3.80;;
12681;SDS011;6405;59.208;18.216;2023-04-21T02:29:13;7.77;;;3.80;;
12681;SDS011;6405;59.208;18.216;2023-04-21T02:31:39;4.53;;;3.53;;
12681;SDS011;6405;59.208;18.216;2023-04-21T02:34:05;6.47;;;3.43;;
12681;SDS011;6405;59.208;18.216;2023-04-21T02:36:31;6.97;;;3.40;;
12681;SDS011;6405;59.208;18.216;2023-04-21T02:38:57;8.13;;;3.73;;
12681;SDS011;6405;59.208;18.216;2023-04-21T02:41:23;4.60;;;3.17;;
12681;SDS011;6405;59.208;18.216;2023-04-21T02:43:48;5.20;;;3.80;;
12681;SDS011;6405;59.208;18.216;2023-04-21T02:46:14;6.77;;;3.53;;
12681;SDS011;6405;59.208;18.216;2023-04-21T02:48:40;10.90;;;3.47;;
12681;SDS011;6405;59.208;18.216;2023-04-21T02:51:10;7.27;;;3.10;;
12681;SDS011;6405;59.208;18.216;2023-04-21T02:53:36;6.83;;;3.53;;
12681;SDS011;6405;59.208;18.216;2023-04-21T02:56:02;10.30;;;3.47;;
12681;SDS011;6405;59.208;18.216;2023-04-21T02:58:29;12.43;;;3.73;;
12681;SDS011;6405;59.208;18.216;2023-04-21T03:00:55;11.23;;;3.80;;
12681;SDS011;6405;59.208;18.216;2023-04-21T03:03:20;9.60;;;3.73;;
12681;SDS011;6405;59.208;18.216;2023-04-21T03:05:46;5.03;;;3.00;;
12681;SDS011;6405;59.208;18.216;2023-04-21T03:08:12;7.77;;;3.40;;
12681;SDS011;6405;59.208;18.216;2023-04-21T03:10:38;9.57;;;3.50;;
12681;SDS011;6405;59.208;18.216;2023-04-21T03:13:03;5.03;;;3.50;;
12681;SDS011;6405;59.208;18.216;2023-04-21T03:15:29;8.57;;;3.60;;
12681;SDS011;6405;59.208;18.216;2023-04-21T03:17:55;5.43;;;3.77;;
12681;SDS011;6405;59.208;18.216;2023-04-21T03:20:21;6.00;;;3.83;;
12681;SDS011;6405;59.208;18.216;2023-04-21T03:22:46;7.67;;;3.40;;
12681;SDS011;6405;59.208;18.216;2023-04-21T03:25:12;7.07;;;4.40;;
12681;SDS011;6405;59.208;18.216;2023-04-21T03:27:38;7.03;;;4.00;;
12681;SDS011;6405;59.208;18.216;2023-04-21T03:30:04;6.73;;;3.67;;
12681;SDS011;6405;59.208;18.216;2023-04-21T03:32:31;5.93;;;3.73;;
12681;SDS011;6405;59.208;18.216;2023-04-21T03:34:56;8.03;;;3.77;;
12681;SDS011;6405;59.208;18.216;2023-04-21T03:37:22;7.17;;;3.73;;
12681;SDS011;6405;59.208;18.216;2023-04-21T03:39:48;5.40;;;3.60;;
12681;SDS011;6405;59.208;18.216;2023-04-21T03:42:13;5.13;;;3.73;;
12681;SDS011;6405;59.208;18.216;2023-04-21T03:44:39;8.27;;;4.00;;
12681;SDS011;6405;59.208;18.216;2023-04-21T03:47:05;6.93;;;3.87;;
12681;SDS011;6405;59.208;18.216;2023-04-21T03:49:32;6.20;;;3.47;;
12681;SDS011;6405;59.208;18.216;2023-04-21T03:51:58;6.67;;;3.67;;
12681;SDS011;6405;59.208;18.216;2023-04-21T03:54:24;7.27;;;3.80;;
12681;SDS011;6405;59.208;18.216;2023-04-21T03:56:50;6.30;;;3.57;;
12681;SDS011;6405;59.208;18.216;2023-04-21T03:59:15;7.40;;;3.90;;
12681;SDS011;6405;59.208;18.216;2023-04-21T04:01:41;6.27;;;3.53;;
12681;SDS011;6405;59.208;18.216;2023-04-21T04:04:07;5.73;;;3.53;;
12681;SDS011;6405;59.208;18.216;2023-04-21T04:06:33;5.63;;;3.20;;
12681;SDS011;6405;59.208;18.216;2023-04-21T04:08:59;7.83;;;3.63;;
12681;SDS011;6405;59.208;18.216;2023-04-21T04:11:28;7.27;;;3.90;;
12681;SDS011;6405;59.208;18.216;2023-04-21T04:13:57;4.83;;;3.57;;
12681;SDS011;6405;59.208;18.216;2023-04-21T04:16:22;5.97;;;3.57;;
12681;SDS011;6405;59.208;18.216;2023-04-21T04:18:49;10.23;;;3.60;;
12681;SDS011;6405;59.208;18.216;2023-04-21T04:21:15;8.23;;;3.97;;
12681;SDS011;6405;59.208;18.216;2023-04-21T04:23:40;7.67;;;3.43;;
12681;SDS011;6405;59.208;18.216;2023-04-21T04:26:06;8.13;;;3.90;;
12681;SDS011;6405;59.208;18.216;2023-04-21T04:28:33;6.17;;;3.90;;
12681;SDS011;6405;59.208;18.216;2023-04-21T04:30:59;7.23;;;3.83;;
12681;SDS011;6405;59.208;18.216;2023-04-21T04:33:25;7.87;;;3.67;;
12681;SDS011;6405;59.208;18.216;2023-04-21T04:35:51;7.80;;;3.47;;
12681;SDS011;6405;59.208;18.216;2023-04-21T04:38:17;5.40;;;3.37;;
12681;SDS011;6405;59.208;18.216;2023-04-21T04:40:42;4.83;;;3.47;;
12681;SDS011;6405;59.208;18.216;2023-04-21T04:43:08;4.40;;;3.27;;
12681;SDS011;6405;59.208;18.216;2023-04-21T04:45:37;6.33;;;3.87;;
12681;SDS011;6405;59.208;18.216;2023-04-21T04:48:02;9.43;;;3.73;;
12681;SDS011;6405;59.208;18.216;2023-04-21T04:50:28;9.90;;;4.37;;
12681;SDS011;6405;59.208;18.216;2023-04-21T04:52:54;7.07;;;4.60;;
12681;SDS011;6405;59.208;18.216;2023-04-21T04:55:21;10.03;;;4.47;;
12681;SDS011;6405;59.208;18.216;2023-04-21T04:57:47;9.33;;;4.50;;
12681;SDS011;6405;59.208;18.216;2023-04-21T05:00:13;8.87;;;4.60;;
12681;SDS011;6405;59.208;18.216;2023-04-21T05:02:39;12.13;;;4.90;;
12681;SDS011;6405;59.208;18.216;2023-04-21T05:05:05;10.93;;;5.07;;
12681;SDS011;6405;59.208;18.216;2023-04-21T05:07:32;10.57;;;5.63;;
12681;SDS011;6405;59.208;18.216;2023-04-21T05:09:58;8.80;;;5.33;;
12681;SDS011;6405;59.208;18.216;2023-04-21T05:12:24;10.27;;;4.70;;
12681;SDS011;6405;59.208;18.216;2023-04-21T05:14:49;8.60;;;4.13;;
12681;SDS011;6405;59.208;18.216;2023-04-21T05:17:15;8.53;;;4.37;;
12681;SDS011;6405;59.208;18.216;2023-04-21T05:19:41;19.97;;;4.93;;
12681;SDS011;6405;59.208;18.216;2023-04-21T05:22:06;13.87;;;4.60;;
12681;SDS011;6405;59.208;18.216;2023-04-21T05:24:32;13.97;;;4.53;;
12681;SDS011;6405;59.208;18.216;2023-04-21T05:26:58;13.00;;;4.50;;
12681;SDS011;6405;59.208;18.216;2023-04-21T05:29:24;13.67;;;4.17;;
12681;SDS011;6405;59.208;18.216;2023-04-21T05:31:49;9.10;;;4.10;;
12681;SDS011;6405;59.208;18.216;2023-04-21T05:34:15;11.77;;;4.70;;
12681;SDS011;6405;59.208;18.216;2023-04-21T05:36:41;18.63;;;4.67;;
12681;SDS011;6405;59.208;18.216;2023-04-21T05:39:07;21.13;;;4.73;;
12681;SDS011;6405;59.208;18.216;2023-04-21T05:41:33;12.33;;;4.00;;
12681;SDS011;6405;59.208;18.216;2023-04-21T05:43:58;11.73;;;4.27;;
12681;SDS011;6405;59.208;18.216;2023-04-21T05:46:24;8.90;;;4.23;;
12681;SDS011;6405;59.208;18.216;2023-04-21T05:48:50;11.10;;;4.20;;
12681;SDS011;6405;59.208;18.216;2023-04-21T05:51:15;12.40;;;4.37;;
12681;SDS011;6405;59.208;18.216;2023-04-21T05:53:41;17.47;;;3.80;;
12681;SDS011;6405;59.208;18.216;2023-04-21T05:56:08;11.17;;;3.90;;
12681;SDS011;6405;59.208;18.216;2023-04-21T05:58:35;14.27;;;3.57;;
12681;SDS011;6405;59.208;18.216;2023-04-21T06:01:01;10.67;;;3.80;;
12681;SDS011;6405;59.208;18.216;2023-04-21T06:03:29;10.00;;;3.53;;
12681;SDS011;6405;59.208;18.216;2023-04-21T06:05:55;12.33;;;3.50;;
12681;SDS011;6405;59.208;18.216;2023-04-21T06:08:21;13.23;;;4.60;;
12681;SDS011;6405;59.208;18.216;2023-04-21T06:10:47;9.73;;;3.63;;
12681;SDS011;6405;59.208;18.216;2023-04-21T06:13:13;12.97;;;4.10;;
12681;SDS011;6405;59.208;18.216;2023-04-21T06:15:39;11.30;;;3.77;;
12681;SDS011;6405;59.208;18.216;2023-04-21T06:18:05;14.17;;;3.67;;
12681;SDS011;6405;59.208;18.216;2023-04-21T06:20:30;8.27;;;3.80;;
12681;SDS011;6405;59.208;18.216;2023-04-21T06:22:56;9.77;;;3.37;;
12681;SDS011;6405;59.208;18.216;2023-04-21T06:25:22;9.77;;;3.00;;
12681;SDS011;6405;59.208;18.216;2023-04-21T06:27:48;7.00;;;2.80;;
12681;SDS011;6405;59.208;18.216;2023-04-21T06:30:13;13.67;;;2.90;;
12681;SDS011;6405;59.208;18.216;2023-04-21T06:32:39;3.23;;;1.70;;
12681;SDS011;6405;59.208;18.216;2023-04-21T06:35:05;8.50;;;2.20;;
12681;SDS011;6405;59.208;18.216;2023-04-21T06:37:31;3.03;;;1.50;;
12681;SDS011;6405;59.208;18.216;2023-04-21T06:39:57;2.77;;;1.20;;
12681;SDS011;6405;59.208;18.216;2023-04-21T06:42:22;9.03;;;2.07;;
12681;SDS011;6405;59.208;18.216;2023-04-21T06:44:48;5.60;;;1.40;;
12681;SDS011;6405;59.208;18.216;2023-04-21T06:47:14;8.37;;;1.50;;
12681;SDS011;6405;59.208;18.216;2023-04-21T06:49:40;3.63;;;1.30;;
12681;SDS011;6405;59.208;18.216;2023-04-21T06:52:06;2.27;;;1.17;;
12681;SDS011;6405;59.208;18.216;2023-04-21T06:54:32;4.23;;;1.67;;
12681;SDS011;6405;59.208;18.216;2023-04-21T06:56:58;2.77;;;1.33;;
12681;SDS011;6405;59.208;18.216;2023-04-21T06:59:23;4.40;;;1.20;;
12681;SDS011;6405;59.208;18.216;2023-04-21T07:01:49;2.47;;;1.30;;
12681;SDS011;6405;59.208;18.216;2023-04-21T07:04:19;5.60;;;1.17;;
12681;SDS011;6405;59.208;18.216;2023-04-21T07:06:45;2.87;;;1.20;;
12681;SDS011;6405;59.208;18.216;2023-04-21T07:09:11;4.30;;;1.23;;
12681;SDS011;6405;59.208;18.216;2023-04-21T07:11:37;1.80;;;0.90;;
12681;SDS011;6405;59.208;18.216;2023-04-21T07:14:02;1.87;;;1.07;;
12681;SDS011;6405;59.208;18.216;2023-04-21T07:16:28;2.37;;;1.13;;
12681;SDS011;6405;59.208;18.216;2023-04-21T07:18:54;3.73;;;1.03;;
12681;SDS011;6405;59.208;18.216;2023-04-21T07:21:20;3.20;;;0.90;;
12681;SDS011;6405;59.208;18.216;2023-04-21T07:23:46;3.57;;;1.30;;
12681;SDS011;6405;59.208;18.216;2023-04-21T07:26:11;3.77;;;1.13;;
12681;SDS011;6405;59.208;18.216;2023-04-21T07:28:37;3.73;;;1.10;;
12681;SDS011;6405;59.208;18.216;2023-04-21T07:31:04;1.27;;;0.83;;
12681;SDS011;6405;59.208;18.216;2023-04-21T07:33:30;1.90;;;1.07;;
12681;SDS011;6405;59.208;18.216;2023-04-21T07:35:56;4.27;;;1.27;;
12681;SDS011;6405;59.208;18.216;2023-04-21T07:38:22;2.60;;;0.70;;
12681;SDS011;6405;59.208;18.216;2023-04-21T07:40:47;2.40;;;0.80;;
12681;SDS011;6405;59.208;18.216;2023-04-21T07:43:13;4.67;;;1.10;;
12681;SDS011;6405;59.208;18.216;2023-04-21T07:45:39;3.63;;;0.80;;
12681;SDS011;6405;59.208;18.216;2023-04-21T07:48:05;3.70;;;0.97;;
12681;SDS011;6405;59.208;18.216;2023-04-21T07:50:31;2.20;;;0.70;;
12681;SDS011;6405;59.208;18.216;2023-04-21T07:52:59;5.73;;;1.30;;
12681;SDS011;6405;59.208;18.216;2023-04-21T07:55:26;3.73;;;0.80;;
12681;SDS011;6405;59.208;18.216;2023-04-21T07:57:52;4.07;;;0.90;;
12681;SDS011;6405;59.208;18.216;2023-04-21T08:00:17;1.27;;;1.00;;
12681;SDS011;6405;59.208;18.216;2023-04-21T08:02:43;1.93;;;0.70;;
12681;SDS011;6405;59.208;18.216;2023-04-21T08:05:09;3.97;;;0.90;;
12681;SDS011;6405;59.208;18.216;2023-04-21T08:07:35;2.00;;;0.90;;
12681;SDS011;6405;59.208;18.216;2023-04-21T08:10:01;2.47;;;0.90;;
12681;SDS011;6405;59.208;18.216;2023-04-21T08:12:26;1.93;;;0.73;;
12681;SDS011;6405;59.208;18.216;2023-04-21T08:14:52;4.03;;;0.80;;
12681;SDS011;6405;59.208;18.216;2023-04-21T08:17:18;2.27;;;0.80;;
12681;SDS011;6405;59.208;18.216;2023-04-21T08:19:44;1.43;;;0.90;;
12681;SDS011;6405;59.208;18.216;2023-04-21T08:22:09;3.07;;;0.87;;
12681;SDS011;6405;59.208;18.216;2023-04-21T08:24:35;2.30;;;0.70;;
12681;SDS011;6405;59.208;18.216;2023-04-21T08:27:00;8.80;;;1.07;;
12681;SDS011;6405;59.208;18.216;2023-04-21T08:29:27;2.60;;;0.60;;
12681;SDS011;6405;59.208;18.216;2023-04-21T08:31:52;4.10;;;0.60;;
12681;SDS011;6405;59.208;18.216;2023-04-21T08:34:18;1.03;;;0.80;;
12681;SDS011;6405;59.208;18.216;2023-04-21T08:36:44;2.03;;;0.80;;
12681;SDS011;6405;59.208;18.216;2023-04-21T08:39:11;1.57;;;0.73;;
12681;SDS011;6405;59.208;18.216;2023-04-21T08:41:37;3.27;;;0.80;;
12681;SDS011;6405;59.208;18.216;2023-04-21T08:44:05;1.67;;;0.90;;
12681;SDS011;6405;59.208;18.216;2023-04-21T08:46:31;2.40;;;0.90;;
12681;SDS011;6405;59.208;18.216;2023-04-21T08:48:57;2.53;;;0.80;;
12681;SDS011;6405;59.208;18.216;2023-04-21T08:51:26;2.60;;;1.03;;
12681;SDS011;6405;59.208;18.216;2023-04-21T08:53:53;3.37;;;0.70;;
12681;SDS011;6405;59.208;18.216;2023-04-21T08:56:19;3.47;;;0.77;;
12681;SDS011;6405;59.208;18.216;2023-04-21T08:58:45;1.30;;;0.67;;
12681;SDS011;6405;59.208;18.216;2023-04-21T09:01:11;3.70;;;0.90;;
12681;SDS011;6405;59.208;18.216;2023-04-21T09:03:36;2.50;;;0.70;;
12681;SDS011;6405;59.208;18.216;2023-04-21T09:06:06;2.90;;;0.70;;
12681;SDS011;6405;59.208;18.216;2023-04-21T09:08:35;3.67;;;0.70;;
12681;SDS011;6405;59.208;18.216;2023-04-21T09:11:02;1.00;;;0.60;;
12681;SDS011;6405;59.208;18.216;2023-04-21T09:13:32;2.57;;;0.80;;
12681;SDS011;6405;59.208;18.216;2023-04-21T09:16:01;3.87;;;0.70;;
12681;SDS011;6405;59.208;18.216;2023-04-21T09:18:29;1.60;;;0.80;;
12681;SDS011;6405;59.208;18.216;2023-04-21T09:21:07;0.60;;;0.57;;
12681;SDS011;6405;59.208;18.216;2023-04-21T09:23:45;1.77;;;0.77;;
12681;SDS011;6405;59.208;18.216;2023-04-21T09:26:12;2.07;;;0.87;;
12681;SDS011;6405;59.208;18.216;2023-04-21T09:28:45;2.93;;;1.43;;
12681;SDS011;6405;59.208;18.216;2023-04-21T09:31:16;1.23;;;0.73;;
12681;SDS011;6405;59.208;18.216;2023-04-21T09:33:49;2.93;;;0.77;;
12681;SDS011;6405;59.208;18.216;2023-04-21T09:36:21;5.53;;;1.00;;
12681;SDS011;6405;59.208;18.216;2023-04-21T09:41:19;3.63;;;0.60;;
12681;SDS011;6405;59.208;18.216;2023-04-21T09:43:46;2.40;;;0.77;;
12681;SDS011;6405;59.208;18.216;2023-04-21T09:46:12;1.33;;;0.80;;
12681;SDS011;6405;59.208;18.216;2023-04-21T09:48:42;2.17;;;0.60;;
12681;SDS011;6405;59.208;18.216;2023-04-21T09:51:10;4.83;;;0.73;;
12681;SDS011;6405;59.208;18.216;2023-04-21T09:53:39;0.70;;;0.70;;
12681;SDS011;6405;59.208;18.216;2023-04-21T09:56:12;4.30;;;1.70;;
12681;SDS011;6405;59.208;18.216;2023-04-21T09:58:40;4.90;;;2.60;;
12681;SDS011;6405;59.208;18.216;2023-04-21T10:01:26;1.67;;;1.13;;
12681;SDS011;6405;59.208;18.216;2023-04-21T10:03:54;16.40;;;11.13;;
12681;SDS011;6405;59.208;18.216;2023-04-21T10:06:21;5.17;;;2.00;;
12681;SDS011;6405;59.208;18.216;2023-04-21T10:08:48;7.17;;;5.20;;
12681;SDS011;6405;59.208;18.216;2023-04-21T10:11:15;3.27;;;1.30;;
12681;SDS011;6405;59.208;18.216;2023-04-21T10:13:42;5.60;;;1.50;;
12681;SDS011;6405;59.208;18.216;2023-04-21T10:16:08;3.10;;;1.07;;
12681;SDS011;6405;59.208;18.216;2023-04-21T10:18:35;7.40;;;1.40;;
12681;SDS011;6405;59.208;18.216;2023-04-21T10:21:09;1.97;;;0.97;;
12681;SDS011;6405;59.208;18.216;2023-04-21T10:23:37;1.53;;;0.90;;
12681;SDS011;6405;59.208;18.216;2023-04-21T10:26:11;2.03;;;0.90;;
12681;SDS011;6405;59.208;18.216;2023-04-21T10:28:40;1.47;;;0.87;;
12681;SDS011;6405;59.208;18.216;2023-04-21T10:31:16;1.87;;;1.00;;
12681;SDS011;6405;59.208;18.216;2023-04-21T10:34:10;2.57;;;1.00;;
12681;SDS011;6405;59.208;18.216;2023-04-21T10:39:09;3.60;;;1.10;;
12681;SDS011;6405;59.208;18.216;2023-04-21T10:41:37;2.23;;;0.80;;
12681;SDS011;6405;59.208;18.216;2023-04-21T10:46:51;2.10;;;1.07;;
12681;SDS011;6405;59.208;18.216;2023-04-21T10:54:31;1.33;;;0.97;;
12681;SDS011;6405;59.208;18.216;2023-04-21T10:57:12;2.13;;;1.10;;
12681;SDS011;6405;59.208;18.216;2023-04-21T10:59:43;4.17;;;1.00;;
12681;SDS011;6405;59.208;18.216;2023-04-21T11:02:10;2.30;;;0.90;;
12681;SDS011;6405;59.208;18.216;2023-04-21T11:04:36;1.47;;;0.87;;
12681;SDS011;6405;59.208;18.216;2023-04-21T11:07:09;2.30;;;1.30;;
12681;SDS011;6405;59.208;18.216;2023-04-21T11:09:40;1.80;;;1.13;;
12681;SDS011;6405;59.208;18.216;2023-04-21T11:12:08;4.73;;;1.50;;
12681;SDS011;6405;59.208;18.216;2023-04-21T11:14:35;3.40;;;1.20;;
12681;SDS011;6405;59.208;18.216;2023-04-21T11:17:03;7.53;;;2.80;;
12681;SDS011;6405;59.208;18.216;2023-04-21T11:19:32;2.87;;;1.27;;
12681;SDS011;6405;59.208;18.216;2023-04-21T11:21:58;1.53;;;1.30;;
12681;SDS011;6405;59.208;18.216;2023-04-21T11:24:24;4.40;;;0.77;;
12681;SDS011;6405;59.208;18.216;2023-04-21T11:26:50;1.13;;;0.90;;
12681;SDS011;6405;59.208;18.216;2023-04-21T11:29:15;3.57;;;0.90;;
12681;SDS011;6405;59.208;18.216;2023-04-21T11:31:42;4.10;;;1.07;;
12681;SDS011;6405;59.208;18.216;2023-04-21T11:34:10;4.67;;;2.00;;
12681;SDS011;6405;59.208;18.216;2023-04-21T11:36:38;4.40;;;1.30;;
12681;SDS011;6405;59.208;18.216;2023-04-21T11:39:06;2.47;;;0.93;;
12681;SDS011;6405;59.208;18.216;2023-04-21T11:41:34;4.30;;;1.17;;
12681;SDS011;6405;59.208;18.216;2023-04-21T11:44:01;2.33;;;1.27;;
12681;SDS011;6405;59.208;18.216;2023-04-21T11:46:27;3.60;;;1.00;;
12681;SDS011;6405;59.208;18.216;2023-04-21T11:51:25;5.47;;;1.00;;
12681;SDS011;6405;59.208;18.216;2023-04-21T11:53:57;2.30;;;1.30;;
12681;SDS011;6405;59.208;18.216;2023-04-21T11:56:23;2.83;;;1.20;;
12681;SDS011;6405;59.208;18.216;2023-04-21T11:58:49;2.63;;;0.93;;
12681;SDS011;6405;59.208;18.216;2023-04-21T12:01:16;2.00;;;1.10;;
12681;SDS011;6405;59.208;18.216;2023-04-21T12:03:50;2.83;;;1.10;;
12681;SDS011;6405;59.208;18.216;2023-04-21T12:06:20;2.20;;;1.10;;
12681;SDS011;6405;59.208;18.216;2023-04-21T12:08:46;2.60;;;0.97;;
12681;SDS011;6405;59.208;18.216;2023-04-21T12:11:15;3.70;;;1.17;;
12681;SDS011;6405;59.208;18.216;2023-04-21T12:13:41;5.67;;;1.70;;
12681;SDS011;6405;59.208;18.216;2023-04-21T12:16:08;5.90;;;0.90;;
12681;SDS011;6405;59.208;18.216;2023-04-21T12:18:34;4.73;;;1.03;;
12681;SDS011;6405;59.208;18.216;2023-04-21T12:21:00;3.97;;;1.27;;
12681;SDS011;6405;59.208;18.216;2023-04-21T12:23:27;2.33;;;1.00;;
12681;SDS011;6405;59.208;18.216;2023-04-21T12:25:53;2.73;;;1.00;;
12681;SDS011;6405;59.208;18.216;2023-04-21T12:28:19;3.10;;;1.00;;
12681;SDS011;6405;59.208;18.216;2023-04-21T12:30:45;2.37;;;1.00;;
12681;SDS011;6405;59.208;18.216;2023-04-21T12:33:10;11.47;;;1.63;;
12681;SDS011;6405;59.208;18.216;2023-04-21T12:35:37;7.03;;;2.63;;
12681;SDS011;6405;59.208;18.216;2023-04-21T12:38:03;4.00;;;1.53;;
12681;SDS011;6405;59.208;18.216;2023-04-21T12:40:29;3.20;;;1.40;;
12681;SDS011;6405;59.208;18.216;2023-04-21T12:42:54;4.13;;;1.20;;
12681;SDS011;6405;59.208;18.216;2023-04-21T12:45:20;2.13;;;0.90;;
12681;SDS011;6405;59.208;18.216;2023-04-21T12:47:46;1.20;;;0.87;;
12681;SDS011;6405;59.208;18.216;2023-04-21T12:50:12;2.47;;;0.90;;
12681;SDS011;6405;59.208;18.216;2023-04-21T12:52:38;2.23;;;0.70;;
12681;SDS011;6405;59.208;18.216;2023-04-21T12:55:03;2.47;;;0.80;;
12681;SDS011;6405;59.208;18.216;2023-04-21T12:57:30;2.70;;;0.60;;
12681;SDS011;6405;59.208;18.216;2023-04-21T12:59:56;5.23;;;0.90;;
12681;SDS011;6405;59.208;18.216;2023-04-21T13:02:22;0.77;;;0.50;;
12681;SDS011;6405;59.208;18.216;2023-04-21T13:04:48;1.40;;;0.70;;
12681;SDS011;6405;59.208;18.216;2023-04-21T13:07:13;1.20;;;0.70;;
12681;SDS011;6405;59.208;18.216;2023-04-21T13:09:40;0.60;;;0.50;;
12681;SDS011;6405;59.208;18.216;2023-04-21T13:12:06;1.37;;;0.80;;
12681;SDS011;6405;59.208;18.216;2023-04-21T13:14:32;2.13;;;0.90;;
12681;SDS011;6405;59.208;18.216;2023-04-21T13:16:57;3.23;;;1.00;;
12681;SDS011;6405;59.208;18.216;2023-04-21T13:19:23;1.43;;;0.70;;
12681;SDS011;6405;59.208;18.216;2023-04-21T13:21:50;1.70;;;0.90;;
12681;SDS011;6405;59.208;18.216;2023-04-21T13:24:16;0.73;;;0.63;;
12681;SDS011;6405;59.208;18.216;2023-04-21T13:26:41;1.67;;;0.70;;
12681;SDS011;6405;59.208;18.216;2023-04-21T13:29:07;1.40;;;0.80;;
12681;SDS011;6405;59.208;18.216;2023-04-21T13:31:33;1.17;;;0.60;;
12681;SDS011;6405;59.208;18.216;2023-04-21T13:33:59;3.87;;;0.90;;
12681;SDS011;6405;59.208;18.216;2023-04-21T13:36:25;2.63;;;0.80;;
12681;SDS011;6405;59.208;18.216;2023-04-21T13:38:51;2.10;;;0.90;;
12681;SDS011;6405;59.208;18.216;2023-04-21T13:41:19;0.80;;;0.80;;
12681;SDS011;6405;59.208;18.216;2023-04-21T13:43:45;1.90;;;0.73;;
12681;SDS011;6405;59.208;18.216;2023-04-21T13:46:10;2.23;;;1.00;;
12681;SDS011;6405;59.208;18.216;2023-04-21T13:48:38;0.73;;;0.73;;
12681;SDS011;6405;59.208;18.216;2023-04-21T13:51:04;4.60;;;0.90;;
12681;SDS011;6405;59.208;18.216;2023-04-21T13:53:30;2.13;;;1.00;;
12681;SDS011;6405;59.208;18.216;2023-04-21T13:55:56;3.33;;;0.90;;
12681;SDS011;6405;59.208;18.216;2023-04-21T13:58:23;1.90;;;0.90;;
12681;SDS011;6405;59.208;18.216;2023-04-21T14:00:49;5.37;;;1.00;;
12681;SDS011;6405;59.208;18.216;2023-04-21T14:03:15;1.40;;;0.70;;
12681;SDS011;6405;59.208;18.216;2023-04-21T14:05:40;5.23;;;0.73;;
12681;SDS011;6405;59.208;18.216;2023-04-21T14:08:06;3.13;;;0.83;;
12681;SDS011;6405;59.208;18.216;2023-04-21T14:10:32;2.67;;;1.00;;
12681;SDS011;6405;59.208;18.216;2023-04-21T14:12:57;1.50;;;0.60;;
12681;SDS011;6405;59.208;18.216;2023-04-21T14:15:24;2.40;;;0.70;;
12681;SDS011;6405;59.208;18.216;2023-04-21T14:17:50;2.40;;;1.00;;
12681;SDS011;6405;59.208;18.216;2023-04-21T14:20:17;2.03;;;0.80;;
12681;SDS011;6405;59.208;18.216;2023-04-21T14:22:42;1.03;;;0.80;;
12681;SDS011;6405;59.208;18.216;2023-04-21T14:25:08;1.67;;;1.13;;
12681;SDS011;6405;59.208;18.216;2023-04-21T14:27:34;2.63;;;0.83;;
12681;SDS011;6405;59.208;18.216;2023-04-21T14:29:59;1.47;;;0.77;;
12681;SDS011;6405;59.208;18.216;2023-04-21T14:32:25;1.03;;;0.70;;
12681;SDS011;6405;59.208;18.216;2023-04-21T14:34:51;1.93;;;1.13;;
12681;SDS011;6405;59.208;18.216;2023-04-21T14:37:22;0.83;;;0.67;;
12681;SDS011;6405;59.208;18.216;2023-04-21T14:39:48;2.07;;;0.90;;
12681;SDS011;6405;59.208;18.216;2023-04-21T14:42:14;1.30;;;1.03;;
12681;SDS011;6405;59.208;18.216;2023-04-21T14:44:39;2.43;;;0.80;;
12681;SDS011;6405;59.208;18.216;2023-04-21T14:47:05;1.80;;;1.00;;
12681;SDS011;6405;59.208;18.216;2023-04-21T14:49:31;2.87;;;0.90;;
12681;SDS011;6405;59.208;18.216;2023-04-21T14:51:56;1.37;;;0.90;;
12681;SDS011;6405;59.208;18.216;2023-04-21T14:54:22;1.07;;;0.70;;
12681;SDS011;6405;59.208;18.216;2023-04-21T14:56:48;2.75;;;0.90;;